Time;durP1;ratioP1;P1;durP2;ratioP2;P2;SDS_P1;SDS_P2;PMS_P1;PMS_P2;Temp;Humidity;BMP_temperature;BMP_pressure;BME280_temperature;BME280_humidity;BME280_pressure;Samples;Min_cycle;Max_cycle;Signal;HPM_P1;HPM_P2
2023/08/03 00:00:20;;;;;;;;;;;26.80;99.90;;;;;;5115488;28;19907;-75
2023/08/03 00:02:46;;;;;;;;;;;26.80;99.90;;;;;;5114931;28;20435;-75
2023/08/03 00:05:17;;;;;;;;;;;26.80;99.90;;;;;;5114817;28;20000;-75
2023/08/03 00:07:44;;;;;;;;;;;26.70;99.90;;;;;;5114792;28;20397;-75
2023/08/03 00:10:10;;;;;;;;;;;26.70;99.90;;;;;;5114974;28;20462;-75
2023/08/03 00:12:35;;;;;;;;;;;26.70;99.90;;;;;;5113342;28;20006;-75
2023/08/03 00:15:02;;;;;;;;;;;26.70;99.90;;;;;;5115260;28;20323;-74
2023/08/03 00:17:27;;;;;;;;;;;26.70;99.90;;;;;;5114872;28;19908;-74
2023/08/03 00:19:53;;;;;;;;;;;26.70;99.90;;;;;;5114716;28;19949;-75
2023/08/03 00:22:19;;;;;;;;;;;26.70;99.90;;;;;;5114529;27;20423;-74
2023/08/03 00:24:45;;;;;;;;;;;26.70;99.90;;;;;;5113146;28;19903;-74
2023/08/03 00:27:11;;;;;;;;;;;26.70;99.90;;;;;;5115004;28;19903;-74
2023/08/03 00:29:37;;;;;;;;;;;26.70;99.90;;;;;;5114458;28;19903;-74
2023/08/03 00:32:04;;;;;;;;;;;26.60;99.90;;;;;;5114324;28;19911;-74
2023/08/03 00:34:30;;;;;;;;;;;26.60;99.90;;;;;;5113837;28;19976;-74
2023/08/03 00:36:56;;;;;;;;;;;26.50;99.90;;;;;;5114799;28;19971;-75
2023/08/03 00:39:22;;;;;;;;;;;26.50;99.90;;;;;;5114217;28;19915;-75
2023/08/03 00:41:48;;;;;;;;;;;26.40;99.90;;;;;;5114588;28;19907;-74
2023/08/03 00:44:13;;;;;;;;;;;26.40;99.90;;;;;;5114389;28;20033;-76
2023/08/03 00:46:39;;;;;;;;;;;26.30;99.90;;;;;;5113168;28;19915;-74
2023/08/03 00:49:05;;;;;;;;;;;26.20;99.90;;;;;;5114221;28;19990;-74
2023/08/03 00:51:31;;;;;;;;;;;26.20;99.90;;;;;;5113943;28;20267;-75
2023/08/03 00:53:57;;;;;;;;;;;26.20;99.90;;;;;;5113884;28;19915;-74
2023/08/03 00:56:23;;;;;;;;;;;26.20;99.90;;;;;;5114338;28;19943;-74
2023/08/03 00:58:48;;;;;;;;;;;26.20;99.90;;;;;;5113852;28;19908;-74
2023/08/03 01:01:15;;;;;;;;;;;26.20;99.90;;;;;;5113731;28;19931;-73
2023/08/03 01:03:41;;;;;;;;;;;26.30;99.90;;;;;;5113844;28;19957;-74
2023/08/03 01:06:06;;;;;;;;;;;26.30;99.90;;;;;;5112282;28;20386;-73
2023/08/03 01:08:32;;;;;;;;;;;26.40;99.90;;;;;;5114162;28;19949;-75
2023/08/03 01:10:58;;;;;;;;;;;26.40;99.90;;;;;;5113631;28;19908;-74
2023/08/03 01:13:24;;;;;;;;;;;26.30;99.90;;;;;;5113736;28;19946;-75
2023/08/03 01:15:50;;;;;;;;;;;26.40;99.90;;;;;;5113622;28;20004;-74
2023/08/03 01:18:16;;;;;;;;;;;26.40;99.90;;;;;;5113587;28;20371;-75
2023/08/03 01:20:42;;;;;;;;;;;26.40;99.90;;;;;;5113361;28;20460;-74
2023/08/03 01:23:08;;;;;;;;;;;26.40;99.90;;;;;;5113382;28;20010;-74
2023/08/03 01:25:35;;;;;;;;;;;26.50;99.90;;;;;;5113417;28;20306;-75
2023/08/03 01:28:03;;;;;;;;;;;26.40;99.90;;;;;;5113908;28;19904;-75
2023/08/03 01:30:30;;;;;;;;;;;26.30;99.90;;;;;;5111998;28;19907;-74
2023/08/03 01:32:56;;;;;;;;;;;26.30;99.90;;;;;;5113483;28;19912;-75
2023/08/03 01:35:21;;;;;;;;;;;26.40;99.90;;;;;;5111519;28;19964;-75
2023/08/03 01:37:49;;;;;;;;;;;26.50;99.90;;;;;;5113500;28;19908;-75
2023/08/03 01:40:16;;;;;;;;;;;26.40;99.90;;;;;;5113280;28;19903;-75
2023/08/03 01:42:42;;;;;;;;;;;26.40;99.90;;;;;;5113244;28;19908;-74
2023/08/03 01:45:08;;;;;;;;;;;26.40;99.90;;;;;;5113685;28;19910;-74
2023/08/03 01:47:34;;;;;;;;;;;26.40;99.90;;;;;;5113477;28;19903;-74
2023/08/03 01:50:00;;;;;;;;;;;26.50;99.90;;;;;;5113112;28;19910;-74
2023/08/03 01:52:26;;;;;;;;;;;26.40;99.90;;;;;;5113396;28;19908;-75
2023/08/03 01:54:51;;;;;;;;;;;26.30;99.90;;;;;;5113259;28;19968;-75
2023/08/03 01:57:17;;;;;;;;;;;26.20;99.90;;;;;;5113728;28;19927;-75
2023/08/03 01:59:43;;;;;;;;;;;26.20;99.90;;;;;;5116027;28;20344;-75
2023/08/03 02:02:09;;;;;;;;;;;26.30;99.90;;;;;;5117401;28;19915;-74
2023/08/03 02:04:35;;;;;;;;;;;26.30;99.90;;;;;;5117121;28;19903;-75
2023/08/03 02:07:14;;;;;;;;;;;26.40;99.90;;;;;;5117600;28;20052;-75
2023/08/03 02:09:40;;;;;;;;;;;26.40;99.90;;;;;;5117574;28;20002;-74
2023/08/03 02:12:06;;;;;;;;;;;26.40;99.90;;;;;;5115770;28;20004;-75
2023/08/03 02:14:32;;;;;;;;;;;26.50;99.90;;;;;;5117569;28;20377;-76
2023/08/03 02:16:58;;;;;;;;;;;26.30;99.90;;;;;;5116984;28;19943;-75
2023/08/03 02:19:23;;;;;;;;;;;26.30;99.90;;;;;;5116807;28;19904;-75
2023/08/03 02:21:49;;;;;;;;;;;26.30;99.90;;;;;;5117165;27;19937;-76
2023/08/03 02:24:15;;;;;;;;;;;26.30;99.90;;;;;;5115497;28;19938;-75
2023/08/03 02:26:41;;;;;;;;;;;26.40;99.90;;;;;;5115475;28;19904;-75
2023/08/03 02:29:06;;;;;;;;;;;26.40;99.90;;;;;;5116786;28;19907;-75
2023/08/03 02:31:32;;;;;;;;;;;26.30;99.90;;;;;;5117172;28;20264;-74
2023/08/03 02:33:58;;;;;;;;;;;26.40;99.90;;;;;;5115115;28;19943;-75
2023/08/03 02:36:24;;;;;;;;;;;26.40;99.90;;;;;;5116443;28;19937;-75
2023/08/03 02:38:50;;;;;;;;;;;26.40;99.90;;;;;;5116649;28;19931;-75
2023/08/03 02:41:15;;;;;;;;;;;26.50;99.90;;;;;;5117069;28;19904;-75
2023/08/03 02:43:41;;;;;;;;;;;26.50;99.90;;;;;;5116839;28;20017;-75
2023/08/03 02:46:07;;;;;;;;;;;26.50;99.90;;;;;;5116519;28;19943;-74
2023/08/03 02:48:33;;;;;;;;;;;26.50;99.90;;;;;;5116298;27;19964;-75
2023/08/03 02:50:59;;;;;;;;;;;26.50;99.90;;;;;;5116239;28;19907;-72
2023/08/03 02:53:25;;;;;;;;;;;26.50;99.90;;;;;;5116200;28;19911;-75
2023/08/03 02:55:51;;;;;;;;;;;26.40;99.90;;;;;;5116752;28;19926;-75
2023/08/03 02:58:16;;;;;;;;;;;26.40;99.90;;;;;;5116210;28;19986;-74
2023/08/03 03:00:42;;;;;;;;;;;26.40;99.90;;;;;;5116218;28;19969;-76
2023/08/03 03:03:08;;;;;;;;;;;26.40;99.90;;;;;;5114798;28;19904;-72
2023/08/03 03:05:34;;;;;;;;;;;26.40;99.90;;;;;;5115938;28;19904;-74
2023/08/03 03:08:00;;;;;;;;;;;26.40;99.90;;;;;;5115970;28;19949;-74
2023/08/03 03:10:25;;;;;;;;;;;26.40;99.90;;;;;;5115622;28;20250;-75
2023/08/03 03:12:51;;;;;;;;;;;26.40;99.90;;;;;;5115875;28;19914;-75
2023/08/03 03:15:17;;;;;;;;;;;26.40;99.90;;;;;;5115840;28;20315;-74
2023/08/03 03:17:43;;;;;;;;;;;26.40;99.90;;;;;;5115962;28;20040;-75
2023/08/03 03:20:10;;;;;;;;;;;26.40;99.90;;;;;;5116163;28;19952;-74
2023/08/03 03:22:36;;;;;;;;;;;26.40;99.90;;;;;;5115739;28;19911;-75
2023/08/03 03:25:02;;;;;;;;;;;26.40;99.90;;;;;;5116004;28;19904;-74
2023/08/03 03:27:28;;;;;;;;;;;26.30;99.90;;;;;;5115746;28;19939;-75
2023/08/03 03:29:54;;;;;;;;;;;26.40;99.90;;;;;;5115898;27;20087;-74
2023/08/03 03:32:20;;;;;;;;;;;26.30;99.90;;;;;;5115742;28;19971;-74
2023/08/03 03:34:45;;;;;;;;;;;26.30;99.90;;;;;;5115239;28;19965;-74
2023/08/03 03:37:11;;;;;;;;;;;26.30;99.90;;;;;;5116076;28;20301;-75
2023/08/03 03:39:37;;;;;;;;;;;26.20;99.90;;;;;;5115535;28;19994;-75
2023/08/03 03:42:03;;;;;;;;;;;26.20;99.90;;;;;;5115461;28;20355;-74
2023/08/03 03:44:29;;;;;;;;;;;26.20;99.90;;;;;;5115897;28;19908;-75
2023/08/03 03:46:55;;;;;;;;;;;26.20;99.90;;;;;;5115526;28;19910;-75
2023/08/03 03:49:21;;;;;;;;;;;26.20;99.90;;;;;;5114940;28;19903;-75
2023/08/03 03:51:46;;;;;;;;;;;26.20;99.90;;;;;;5115513;28;19908;-74
2023/08/03 03:54:12;;;;;;;;;;;26.20;99.90;;;;;;5115439;28;19918;-75
2023/08/03 03:56:38;;;;;;;;;;;26.10;99.90;;;;;;5115293;28;19957;-74
2023/08/03 03:59:04;;;;;;;;;;;26.10;99.90;;;;;;5113721;28;19971;-75
2023/08/03 04:01:30;;;;;;;;;;;26.00;99.90;;;;;;5115342;28;19952;-75
2023/08/03 04:03:55;;;;;;;;;;;25.90;99.90;;;;;;5115061;28;19946;-75
2023/08/03 04:06:21;;;;;;;;;;;25.90;99.90;;;;;;5114853;28;20279;-75
2023/08/03 04:08:47;;;;;;;;;;;25.90;99.90;;;;;;5114905;28;19903;-74
2023/08/03 04:11:13;;;;;;;;;;;25.90;99.90;;;;;;5115298;28;19988;-75
2023/08/03 04:13:38;;;;;;;;;;;25.90;99.90;;;;;;5113324;28;19918;-75
2023/08/03 04:16:04;;;;;;;;;;;25.90;99.90;;;;;;5114717;28;19911;-76
2023/08/03 04:18:30;;;;;;;;;;;25.80;99.90;;;;;;5113173;28;20377;-75
2023/08/03 04:20:56;;;;;;;;;;;25.80;99.90;;;;;;5114381;28;19998;-74
2023/08/03 04:23:22;;;;;;;;;;;25.80;99.90;;;;;;5113166;28;19904;-75
2023/08/03 04:25:47;;;;;;;;;;;25.80;99.90;;;;;;5114414;28;19907;-75
2023/08/03 04:28:13;;;;;;;;;;;25.80;99.90;;;;;;5113077;28;19990;-75
2023/08/03 04:30:39;;;;;;;;;;;25.90;99.90;;;;;;5114145;28;19907;-75
2023/08/03 04:33:05;;;;;;;;;;;25.90;99.90;;;;;;5114453;28;19912;-74
2023/08/03 04:35:30;;;;;;;;;;;26.00;99.90;;;;;;5113889;28;19945;-75
2023/08/03 04:37:56;;;;;;;;;;;26.10;99.90;;;;;;5114636;28;19966;-75
2023/08/03 04:40:22;;;;;;;;;;;26.10;99.90;;;;;;5114243;28;19949;-74
2023/08/03 04:42:48;;;;;;;;;;;26.20;99.90;;;;;;5114145;28;19903;-75
2023/08/03 04:45:14;;;;;;;;;;;26.20;99.90;;;;;;5114122;27;19903;-74
2023/08/03 04:47:39;;;;;;;;;;;26.30;99.90;;;;;;5114580;28;20251;-74
2023/08/03 04:50:07;;;;;;;;;;;26.30;99.90;;;;;;5114121;28;19903;-75
2023/08/03 04:52:32;;;;;;;;;;;26.30;99.90;;;;;;5114121;28;19910;-75
2023/08/03 04:54:58;;;;;;;;;;;26.40;99.90;;;;;;5114504;28;19904;-74
2023/08/03 04:57:24;;;;;;;;;;;26.40;99.90;;;;;;5114333;28;20340;-75
2023/08/03 04:59:50;;;;;;;;;;;26.50;99.90;;;;;;5114314;28;19923;-74
2023/08/03 05:02:16;;;;;;;;;;;26.60;99.90;;;;;;5114598;28;20369;-75
2023/08/03 05:04:41;;;;;;;;;;;26.60;99.90;;;;;;5113645;28;19911;-74
2023/08/03 05:07:07;;;;;;;;;;;26.60;99.90;;;;;;5114119;28;20309;-75
2023/08/03 05:09:33;;;;;;;;;;;26.60;99.90;;;;;;5113764;28;19911;-75
2023/08/03 05:11:59;;;;;;;;;;;26.60;99.90;;;;;;5112294;28;19911;-75
2023/08/03 05:14:24;;;;;;;;;;;26.70;99.90;;;;;;5113567;28;20376;-74
2023/08/03 05:16:51;;;;;;;;;;;26.70;99.90;;;;;;5113411;28;19910;-75
2023/08/03 05:19:17;;;;;;;;;;;26.80;99.90;;;;;;5113425;28;20308;-75
2023/08/03 05:21:43;;;;;;;;;;;27.40;99.90;;;;;;5112144;28;19929;-76
2023/08/03 05:24:09;;;;;;;;;;;28.20;99.90;;;;;;5111952;28;20147;-75
2023/08/03 05:26:35;;;;;;;;;;;29.90;99.90;;;;;;5113357;28;19911;-75
2023/08/03 05:29:02;;;;;;;;;;;31.40;99.90;;;;;;5111908;28;20363;-75
2023/08/03 05:31:28;;;;;;;;;;;33.70;99.90;;;;;;5113359;28;19995;-75
2023/08/03 05:33:54;;;;;;;;;;;34.90;98.30;;;;;;5112667;28;20360;-75
2023/08/03 05:36:20;;;;;;;;;;;35.30;96.30;;;;;;5112969;28;20399;-75
2023/08/03 05:38:46;;;;;;;;;;;35.20;96.10;;;;;;5111975;28;19933;-75
2023/08/03 05:41:15;;;;;;;;;;;35.60;95.20;;;;;;5113509;28;19981;-74
2023/08/03 05:43:41;;;;;;;;;;;36.40;93.90;;;;;;5113154;28;19903;-74
2023/08/03 05:46:11;;;;;;;;;;;36.70;92.80;;;;;;5113558;28;19904;-74
2023/08/03 05:48:37;;;;;;;;;;;37.70;91.80;;;;;;5113064;28;19910;-75
2023/08/03 05:51:03;;;;;;;;;;;38.80;90.50;;;;;;5112819;28;19907;-75
2023/08/03 05:53:29;;;;;;;;;;;39.50;89.80;;;;;;5112749;28;20264;-77
2023/08/03 05:55:55;;;;;;;;;;;39.50;88.20;;;;;;5113287;28;20267;-74
2023/08/03 05:58:21;;;;;;;;;;;38.10;87.10;;;;;;5111544;28;19904;-73
2023/08/03 06:00:47;;;;;;;;;;;37.30;86.70;;;;;;5112811;28;19972;-75
2023/08/03 06:03:14;;;;;;;;;;;35.70;88.80;;;;;;5113390;28;19911;-75
2023/08/03 06:05:43;;;;;;;;;;;36.50;88.00;;;;;;5112687;28;19914;-74
2023/08/03 06:08:25;;;;;;;;;;;36.70;87.80;;;;;;5112886;28;19903;-75
2023/08/03 06:10:52;;;;;;;;;;;35.90;88.10;;;;;;5112876;28;19956;-75
2023/08/03 06:13:19;;;;;;;;;;;36.30;88.80;;;;;;5112866;28;20247;-75
2023/08/03 06:15:46;;;;;;;;;;;37.30;86.70;;;;;;5111446;28;20003;-75
2023/08/03 06:18:14;;;;;;;;;;;36.50;87.60;;;;;;5112705;28;20387;-75
2023/08/03 06:20:42;;;;;;;;;;;37.20;86.90;;;;;;5112468;28;19957;-74
2023/08/03 06:23:11;;;;;;;;;;;38.00;85.50;;;;;;5112654;28;19918;-75
2023/08/03 06:25:37;;;;;;;;;;;38.50;84.40;;;;;;5112920;28;19918;-74
2023/08/03 06:28:03;;;;;;;;;;;39.30;82.20;;;;;;5111263;28;19904;-74
2023/08/03 06:30:30;;;;;;;;;;;39.40;81.50;;;;;;5112633;28;19904;-74
2023/08/03 06:32:55;;;;;;;;;;;39.50;81.20;;;;;;5112679;28;19919;-75
2023/08/03 06:35:38;;;;;;;;;;;40.40;79.80;;;;;;5112320;28;19916;-75
2023/08/03 06:38:05;;;;;;;;;;;40.80;76.90;;;;;;5112929;28;19904;-75
2023/08/03 06:40:31;;;;;;;;;;;40.60;76.90;;;;;;5112513;28;20016;-75
2023/08/03 06:42:57;;;;;;;;;;;40.50;75.70;;;;;;5112962;28;20010;-74
2023/08/03 06:45:23;;;;;;;;;;;40.50;74.90;;;;;;5114263;28;19949;-75
2023/08/03 06:47:49;;;;;;;;;;;41.10;73.40;;;;;;5116674;28;19908;-75
2023/08/03 06:50:15;;;;;;;;;;;41.30;72.40;;;;;;5116292;28;19911;-76
2023/08/03 06:52:41;;;;;;;;;;;40.80;72.50;;;;;;5116031;27;19903;-75
2023/08/03 06:55:07;;;;;;;;;;;41.00;72.30;;;;;;5114971;28;19908;-75
2023/08/03 06:57:33;;;;;;;;;;;42.40;70.50;;;;;;5115882;28;20347;-75
2023/08/03 06:59:58;;;;;;;;;;;40.80;70.50;;;;;;5114516;28;19908;-74
2023/08/03 07:02:25;;;;;;;;;;;40.30;72.00;;;;;;5116200;28;19904;-75
2023/08/03 07:04:50;;;;;;;;;;;39.50;72.40;;;;;;5115811;28;19927;-75
2023/08/03 07:07:16;;;;;;;;;;;39.60;72.80;;;;;;5116105;28;20355;-75
2023/08/03 07:09:48;;;;;;;;;;;39.70;71.60;;;;;;5115903;28;19911;-74
2023/08/03 07:12:14;;;;;;;;;;;40.00;71.80;;;;;;5116002;28;19904;-74
2023/08/03 07:14:40;;;;;;;;;;;40.50;70.50;;;;;;5115997;28;19919;-74
2023/08/03 07:17:06;;;;;;;;;;;40.40;70.50;;;;;;5115833;28;19915;-75
2023/08/03 07:19:32;;;;;;;;;;;41.00;69.80;;;;;;5115492;27;20469;-74
2023/08/03 07:21:58;;;;;;;;;;;40.00;70.30;;;;;;5114134;28;20364;-75
2023/08/03 07:24:26;;;;;;;;;;;40.50;70.40;;;;;;5115492;28;19911;-75
2023/08/03 07:26:52;;;;;;;;;;;39.70;69.90;;;;;;5114141;28;19903;-74
2023/08/03 07:29:18;;;;;;;;;;;38.40;72.50;;;;;;5115443;28;19910;-76
2023/08/03 07:31:44;;;;;;;;;;;38.00;73.80;;;;;;5115400;28;19908;-74
2023/08/03 07:34:16;;;;;;;;;;;38.50;73.60;;;;;;5115222;28;20439;-75
2023/08/03 07:36:41;;;;;;;;;;;38.80;73.40;;;;;;5074650;28;20422;-74
2023/08/03 07:39:07;;;;;;;;;;;38.40;73.30;;;;;;5075164;28;19908;-74
2023/08/03 07:41:33;;;;;;;;;;;37.90;74.20;;;;;;5074629;28;19982;-75
2023/08/03 07:43:59;;;;;;;;;;;37.20;74.60;;;;;;5074404;28;20375;-76
2023/08/03 07:46:25;;;;;;;;;;;36.60;75.60;;;;;;5074481;28;19999;-76
2023/08/03 07:48:51;;;;;;;;;;;36.60;76.40;;;;;;5074837;28;20005;-75
2023/08/03 07:51:17;;;;;;;;;;;36.90;75.30;;;;;;5073175;28;20015;-75
2023/08/03 07:53:43;;;;;;;;;;;35.90;76.70;;;;;;5094779;28;20018;-76
2023/08/03 07:56:16;;;;;;;;;;;35.50;77.80;;;;;;5094153;28;20344;-75
2023/08/03 07:58:41;;;;;;;;;;;35.60;77.90;;;;;;5094393;28;20309;-76
2023/08/03 08:01:10;;;;;;;;;;;35.90;77.40;;;;;;5094473;28;20399;-76
2023/08/03 08:03:37;;;;;;;;;;;36.10;77.80;;;;;;5094875;28;19904;-76
2023/08/03 08:06:06;;;;;;;;;;;36.10;77.60;;;;;;5094220;28;20364;-76
2023/08/03 08:08:32;;;;;;;;;;;37.00;77.00;;;;;;5094705;28;20379;-73
2023/08/03 08:10:58;;;;;;;;;;;37.40;76.50;;;;;;5092891;28;19904;-76
2023/08/03 08:13:24;;;;;;;;;;;37.70;75.60;;;;;;5094518;28;19908;-76
2023/08/03 08:15:49;;;;;;;;;;;37.90;75.10;;;;;;5094047;28;19939;-74
2023/08/03 08:18:15;;;;;;;;;;;38.10;74.50;;;;;;5092746;28;19910;-74
2023/08/03 08:20:42;;;;;;;;;;;38.40;75.00;;;;;;5093961;28;19911;-73
2023/08/03 08:23:08;;;;;;;;;;;37.70;75.40;;;;;;5092441;28;19904;-75
2023/08/03 08:25:34;;;;;;;;;;;37.30;75.70;;;;;;5094348;28;19911;-75
2023/08/03 08:28:00;;;;;;;;;;;37.60;79.60;;;;;;5093781;28;19915;-76
2023/08/03 08:30:26;;;;;;;;;;;37.80;77.70;;;;;;5093808;28;19995;-74
2023/08/03 08:32:52;;;;;;;;;;;37.90;83.50;;;;;;5093603;28;19908;-75
2023/08/03 08:35:18;;;;;;;;;;;37.00;83.90;;;;;;5102275;28;19925;-74
2023/08/03 08:37:44;;;;;;;;;;;37.00;83.20;;;;;;5114065;28;20402;-76
2023/08/03 08:40:12;;;;;;;;;;;37.20;83.80;;;;;;5114030;28;19908;-76
2023/08/03 08:42:38;;;;;;;;;;;36.90;85.60;;;;;;5114083;28;19934;-76
2023/08/03 08:45:05;;;;;;;;;;;36.40;86.40;;;;;;5113913;28;19965;-75
2023/08/03 08:47:31;;;;;;;;;;;36.60;86.10;;;;;;5113823;28;19904;-75
2023/08/03 08:49:57;;;;;;;;;;;36.20;87.10;;;;;;5113727;28;19926;-75
2023/08/03 08:52:23;;;;;;;;;;;36.30;88.90;;;;;;5123098;27;19925;-76
2023/08/03 08:54:49;;;;;;;;;;;36.30;88.60;;;;;;5134863;27;19933;-75
2023/08/03 08:57:15;;;;;;;;;;;36.50;87.90;;;;;;5134398;27;20359;-74
2023/08/03 09:00:05;;;;;;;;;;;36.50;89.20;;;;;;5134272;27;19908;-75
2023/08/03 09:02:31;;;;;;;;;;;36.60;90.40;;;;;;5134819;27;19907;-74
2023/08/03 09:04:57;;;;;;;;;;;36.30;90.80;;;;;;5133197;27;20286;-75
2023/08/03 09:07:23;;;;;;;;;;;36.30;91.50;;;;;;5133506;27;19934;-75
2023/08/03 09:09:49;;;;;;;;;;;36.20;92.10;;;;;;5134137;27;19925;-77
2023/08/03 09:12:27;;;;;;;;;;;36.40;92.30;;;;;;5134132;27;19923;-75
2023/08/03 09:14:55;;;;;;;;;;;36.00;92.90;;;;;;5133916;27;19973;-75
2023/08/03 09:17:22;;;;;;;;;;;35.80;93.60;;;;;;5132609;27;19911;-75
2023/08/03 09:19:48;;;;;;;;;;;35.90;93.80;;;;;;5133795;27;19903;-75
2023/08/03 09:22:18;;;;;;;;;;;35.90;93.70;;;;;;5133954;27;19903;-74
2023/08/03 09:24:46;;;;;;;;;;;35.90;94.20;;;;;;5133936;27;19907;-74
2023/08/03 09:27:16;;;;;;;;;;;35.30;94.70;;;;;;5133598;27;19912;-75
2023/08/03 09:29:42;;;;;;;;;;;35.10;95.20;;;;;;5134356;27;19903;-75
2023/08/03 09:32:08;;;;;;;;;;;34.60;95.80;;;;;;5133889;27;19911;-74
2023/08/03 09:34:35;;;;;;;;;;;34.50;96.80;;;;;;5133573;27;19912;-75
2023/08/03 09:37:02;;;;;;;;;;;34.50;97.00;;;;;;5134047;27;19915;-75
2023/08/03 09:39:32;;;;;;;;;;;34.50;97.30;;;;;;5133879;27;19910;-75
2023/08/03 09:41:59;;;;;;;;;;;34.40;98.30;;;;;;5132328;28;20049;-76
2023/08/03 09:44:26;;;;;;;;;;;34.40;99.20;;;;;;5133723;27;19903;-76
2023/08/03 09:46:52;;;;;;;;;;;34.20;99.80;;;;;;5133578;27;19994;-75
2023/08/03 09:49:17;;;;;;;;;;;33.80;99.90;;;;;;5133565;27;19943;-76
2023/08/03 09:51:44;;;;;;;;;;;34.10;99.90;;;;;;5133267;27;19917;-75
2023/08/03 09:54:18;;;;;;;;;;;33.90;99.90;;;;;;5133655;27;19911;-75
2023/08/03 09:56:52;;;;;;;;;;;33.80;99.90;;;;;;5133757;27;19911;-74
2023/08/03 09:59:22;;;;;;;;;;;33.50;99.90;;;;;;5132212;28;19904;-75
2023/08/03 10:01:49;;;;;;;;;;;33.20;99.90;;;;;;5132077;28;19903;-75
2023/08/03 10:04:15;;;;;;;;;;;33.60;99.90;;;;;;5133490;27;19903;-75
2023/08/03 10:06:43;;;;;;;;;;;33.60;99.90;;;;;;5133304;27;19908;-75
2023/08/03 10:09:12;;;;;;;;;;;33.40;99.90;;;;;;5133641;27;19988;-75
2023/08/03 10:11:48;;;;;;;;;;;33.30;99.90;;;;;;5133331;27;20366;-75
2023/08/03 10:14:19;;;;;;;;;;;33.40;99.90;;;;;;5133697;27;20340;-75
2023/08/03 10:16:45;;;;;;;;;;;33.30;99.90;;;;;;5133228;27;19903;-75
2023/08/03 10:19:11;;;;;;;;;;;33.00;99.90;;;;;;5133312;27;20351;-75
2023/08/03 10:21:37;;;;;;;;;;;33.10;99.90;;;;;;5137209;27;19911;-75
2023/08/03 10:24:09;;;;;;;;;;;33.10;99.90;;;;;;5137260;27;19904;-74
2023/08/03 10:26:35;;;;;;;;;;;33.20;99.90;;;;;;5137113;27;19910;-74
2023/08/03 10:29:01;;;;;;;;;;;33.30;99.90;;;;;;5137120;27;20267;-75
2023/08/03 10:31:28;;;;;;;;;;;33.50;99.80;;;;;;5136984;27;19975;-75
2023/08/03 10:33:55;;;;;;;;;;;33.40;99.90;;;;;;5137074;27;19911;-74
2023/08/03 10:36:30;;;;;;;;;;;33.40;99.90;;;;;;5136725;27;20305;-75
2023/08/03 10:38:57;;;;;;;;;;;33.70;99.90;;;;;;5136941;27;19910;-75
2023/08/03 10:41:23;;;;;;;;;;;33.60;99.70;;;;;;5136815;27;20006;-74
2023/08/03 10:44:12;;;;;;;;;;;33.80;97.90;;;;;;5136993;27;19925;-74
2023/08/03 10:46:42;;;;;;;;;;;33.80;98.30;;;;;;5135574;27;19907;-75
2023/08/03 10:49:20;;;;;;;;;;;33.80;98.10;;;;;;5137042;27;19904;-75
2023/08/03 10:51:46;;;;;;;;;;;33.90;97.80;;;;;;5136347;27;19911;-74
2023/08/03 10:54:11;;;;;;;;;;;33.80;97.40;;;;;;5136966;27;19912;-74
2023/08/03 10:56:37;;;;;;;;;;;33.70;97.40;;;;;;5135091;27;19983;-75
2023/08/03 10:59:04;;;;;;;;;;;33.80;97.60;;;;;;5136914;27;19911;-75
2023/08/03 11:01:30;;;;;;;;;;;33.90;97.00;;;;;;5135146;27;19953;-75
2023/08/03 11:03:56;;;;;;;;;;;33.90;97.30;;;;;;5136813;27;19993;-75
2023/08/03 11:06:22;;;;;;;;;;;34.00;97.20;;;;;;5136472;27;19903;-75
2023/08/03 11:08:48;;;;;;;;;;;33.90;97.60;;;;;;5136334;27;19903;-75
2023/08/03 11:11:21;;;;;;;;;;;33.90;97.20;;;;;;5136354;27;19911;-76
2023/08/03 11:13:47;;;;;;;;;;;33.90;97.10;;;;;;5136606;27;20352;-75
2023/08/03 11:16:18;;;;;;;;;;;34.10;97.10;;;;;;5136240;27;19904;-75
2023/08/03 11:18:47;;;;;;;;;;;33.90;97.30;;;;;;5136192;27;20362;-75
2023/08/03 11:21:13;;;;;;;;;;;33.80;96.20;;;;;;5134870;27;20358;-74
2023/08/03 11:23:39;;;;;;;;;;;33.40;96.40;;;;;;5134603;27;19903;-75
2023/08/03 11:26:06;;;;;;;;;;;33.70;96.30;;;;;;5136317;27;19927;-74
2023/08/03 11:28:42;;;;;;;;;;;33.80;96.80;;;;;;5136098;27;20016;-74
2023/08/03 11:31:18;;;;;;;;;;;34.00;97.20;;;;;;5135827;27;19903;-74
2023/08/03 11:33:50;;;;;;;;;;;34.30;96.50;;;;;;5135948;27;20010;-76
2023/08/03 11:36:17;;;;;;;;;;;34.20;97.20;;;;;;5135634;27;20070;-75
2023/08/03 11:38:44;;;;;;;;;;;34.30;97.40;;;;;;5135004;27;19968;-75
2023/08/03 11:41:13;;;;;;;;;;;34.60;97.30;;;;;;5134468;27;20025;-74
2023/08/03 11:43:39;;;;;;;;;;;34.60;97.30;;;;;;5134223;27;19904;-75
2023/08/03 11:46:05;;;;;;;;;;;34.40;96.60;;;;;;5136055;27;19903;-75
2023/08/03 11:48:31;;;;;;;;;;;34.00;97.10;;;;;;5134337;27;19908;-75
2023/08/03 11:50:57;;;;;;;;;;;34.20;97.30;;;;;;5135611;27;19946;-76
2023/08/03 11:53:24;;;;;;;;;;;34.30;96.60;;;;;;5135436;27;20411;-75
2023/08/03 11:55:52;;;;;;;;;;;34.50;96.20;;;;;;5136207;27;20270;-74
2023/08/03 11:58:24;;;;;;;;;;;34.50;95.80;;;;;;5135530;27;19903;-75
2023/08/03 12:00:56;;;;;;;;;;;34.30;95.70;;;;;;5135544;27;19903;-75
2023/08/03 12:03:35;;;;;;;;;;;34.40;95.80;;;;;;5136122;27;19903;-75
2023/08/03 12:06:05;;;;;;;;;;;34.30;95.80;;;;;;5135252;27;20354;-76
2023/08/03 12:08:41;;;;;;;;;;;34.50;95.80;;;;;;5135594;27;20278;-74
2023/08/03 12:11:07;;;;;;;;;;;34.40;95.50;;;;;;5135725;27;19904;-74
2023/08/03 12:13:33;;;;;;;;;;;34.10;96.30;;;;;;5135198;27;20275;-75
2023/08/03 12:15:58;;;;;;;;;;;34.10;96.60;;;;;;5135729;27;20356;-74
2023/08/03 12:18:25;;;;;;;;;;;34.30;96.70;;;;;;5135209;27;19904;-74
2023/08/03 12:20:51;;;;;;;;;;;34.20;96.50;;;;;;5133538;27;20466;-74
2023/08/03 12:23:17;;;;;;;;;;;34.30;96.50;;;;;;5135028;27;20057;-75
2023/08/03 12:25:43;;;;;;;;;;;34.20;96.30;;;;;;5133718;27;19948;-75
2023/08/03 12:28:09;;;;;;;;;;;34.20;96.10;;;;;;5134861;27;19910;-76
2023/08/03 12:30:35;;;;;;;;;;;34.50;95.80;;;;;;5135208;27;19904;-75
2023/08/03 12:33:00;;;;;;;;;;;34.60;95.50;;;;;;5135242;27;19907;-75
2023/08/03 12:35:27;;;;;;;;;;;34.40;95.50;;;;;;5134669;27;19938;-75
2023/08/03 12:37:53;;;;;;;;;;;34.40;95.80;;;;;;5134782;27;19918;-75
2023/08/03 12:40:19;;;;;;;;;;;34.30;96.30;;;;;;5135241;27;19903;-75
2023/08/03 12:42:44;;;;;;;;;;;34.40;96.60;;;;;;5134190;27;19903;-75
2023/08/03 12:45:10;;;;;;;;;;;34.40;96.70;;;;;;5135382;27;19907;-76
2023/08/03 12:47:39;;;;;;;;;;;34.50;96.70;;;;;;5134792;27;19998;-75
2023/08/03 12:50:05;;;;;;;;;;;34.30;97.10;;;;;;5134369;27;19964;-76
2023/08/03 12:52:31;;;;;;;;;;;34.30;97.30;;;;;;5134726;27;19908;-74
2023/08/03 12:54:57;;;;;;;;;;;34.30;97.30;;;;;;5134467;27;19972;-74
2023/08/03 12:57:25;;;;;;;;;;;34.10;97.70;;;;;;5133922;27;19907;-75
2023/08/03 12:59:50;;;;;;;;;;;34.30;97.90;;;;;;5134611;27;20073;-75
2023/08/03 13:02:16;;;;;;;;;;;34.50;97.90;;;;;;5135028;27;19903;-74
2023/08/03 13:04:42;;;;;;;;;;;34.60;97.90;;;;;;5134413;27;19952;-75
2023/08/03 13:07:08;;;;;;;;;;;34.50;97.70;;;;;;5134493;27;20335;-74
2023/08/03 13:09:34;;;;;;;;;;;33.90;97.70;;;;;;5134401;27;19903;-77
2023/08/03 13:11:59;;;;;;;;;;;34.00;97.40;;;;;;5134218;27;19903;-75
2023/08/03 13:14:25;;;;;;;;;;;34.00;97.70;;;;;;5134416;27;20015;-75
2023/08/03 13:16:51;;;;;;;;;;;34.10;97.10;;;;;;5134242;27;19907;-75
2023/08/03 13:19:17;;;;;;;;;;;34.10;97.10;;;;;;5134237;27;19926;-74
2023/08/03 13:21:43;;;;;;;;;;;34.30;96.90;;;;;;5133885;27;19903;-74
2023/08/03 13:24:09;;;;;;;;;;;34.50;96.20;;;;;;5134196;27;19974;-75
2023/08/03 13:26:35;;;;;;;;;;;34.60;95.90;;;;;;5134087;27;20415;-74
2023/08/03 13:29:00;;;;;;;;;;;34.90;95.40;;;;;;5134027;27;19907;-75
2023/08/03 13:31:26;;;;;;;;;;;34.90;94.80;;;;;;5134158;27;19903;-75
2023/08/03 13:33:53;;;;;;;;;;;34.70;95.00;;;;;;5134457;27;19911;-74
2023/08/03 13:36:19;;;;;;;;;;;34.60;94.40;;;;;;5133611;27;19926;-75
2023/08/03 13:38:45;;;;;;;;;;;34.60;94.90;;;;;;5132489;27;19904;-74
2023/08/03 13:41:11;;;;;;;;;;;34.50;95.30;;;;;;5133955;27;19911;-77
2023/08/03 13:43:37;;;;;;;;;;;34.50;96.10;;;;;;5134235;28;19903;-75
2023/08/03 13:46:03;;;;;;;;;;;34.60;96.30;;;;;;5133776;27;19907;-74
2023/08/03 13:48:29;;;;;;;;;;;34.70;95.80;;;;;;5134031;28;20309;-74
2023/08/03 13:50:56;;;;;;;;;;;34.90;95.80;;;;;;5133803;28;19903;-75
2023/08/03 13:53:22;;;;;;;;;;;34.70;95.20;;;;;;5133739;27;19911;-76
2023/08/03 13:55:48;;;;;;;;;;;34.50;94.80;;;;;;5138094;27;20275;-74
2023/08/03 13:58:13;;;;;;;;;;;34.40;95.40;;;;;;5138510;27;19950;-76
2023/08/03 14:00:39;;;;;;;;;;;34.50;95.10;;;;;;5138014;27;20201;-74
2023/08/03 14:03:05;;;;;;;;;;;34.50;94.60;;;;;;5138078;27;19903;-75
2023/08/03 14:05:31;;;;;;;;;;;34.50;94.10;;;;;;5137903;27;19914;-74
2023/08/03 14:07:57;;;;;;;;;;;34.50;94.40;;;;;;5138397;27;19903;-75
2023/08/03 14:10:23;;;;;;;;;;;34.70;94.20;;;;;;5136545;27;20358;-75
2023/08/03 14:12:51;;;;;;;;;;;34.30;95.40;;;;;;5137771;27;19910;-75